Big Bear Station Historical Data
Daily Summary for March 13, 2019 Units:  Metric    English   Both
Next Day »
Daily Weekly Monthly Yearly Custom
  High: Low: Average:
Temperature: 3 °C -4.8 °C -1.3 °C
Dew Point: -1.2 °C -10.5 °C -5.9 °C
Humidity: 98% 48% 72%
Wind Speed: 12.6km/h 0km/h 4.7km/h
Wind Gust: -1607.7km/h - -
Wind- - WSW
Pressure: 795.7 hPa 785.6 hPa -
Precipitation: 1.78 mm    
Historical Graphs
 
 
Tabular Data for March 13, 2019
Time Temperature Dew Point Pressure Wind Wind Speed Wind Gust Humidity Rainfall Rate (Hourly)
00:08 -0.8 °C -1.2 °C 785.6 hPa NNE 8.5 km/h -1607.7 km/h 97% 0 mm
00:23 -0.8 °C -1.2 °C 785.6 hPa ENE 2.7 km/h -1607.7 km/h 97% 0 mm
00:39 -0.9 °C -1.2 °C 785.6 hPa WSW 4.3 km/h -1607.7 km/h 98% 0 mm
00:54 -0.9 °C -1.2 °C 785.6 hPa WNW 4.3 km/h -1607.7 km/h 98% 0 mm
01:09 -0.9 °C -1.2 °C 785.6 hPa NE 4.3 km/h -1607.7 km/h 98% 0 mm
01:24 -0.9 °C -1.2 °C 785.9 hPa NNW 4.3 km/h -1607.7 km/h 98% 0 mm
01:39 -0.9 °C -1.2 °C 785.9 hPa WSW 10.1 km/h -1607.7 km/h 98% 0 mm
01:55 -0.9 °C -1.2 °C 786.2 hPa SE 10.1 km/h -1607.7 km/h 98% 0 mm
02:10 -1 °C -1.6 °C 785.9 hPa South 4.3 km/h -1607.7 km/h 96% 0 mm
02:25 -0.9 °C -1.7 °C 786.2 hPa NW 6.8 km/h -1607.7 km/h 94% 0 mm
02:41 -1 °C -2 °C 786.6 hPa West 6.8 km/h -1607.7 km/h 93% 0 mm
02:56 -1.2 °C -2.2 °C 786.6 hPa WNW 4.3 km/h -1607.7 km/h 93% 0 mm
03:11 -1.4 °C -2.8 °C 786.2 hPa WNW 3.5 km/h -1607.7 km/h 90% 0 mm
03:27 -1.5 °C -3.2 °C 786.6 hPa NNE 9.3 km/h -1607.7 km/h 88% 0 mm
03:42 -1.6 °C -4.1 °C 786.6 hPa NE 2.7 km/h -1607.7 km/h 83% 0 mm
03:57 -2.5 °C -4.1 °C 786.9 hPa North 3.5 km/h -1607.7 km/h 89% 0 mm
04:12 -2.9 °C -4.3 °C 786.6 hPa Calm   -1607.7 km/h 90% 0 mm
04:27 -2.9 °C -4.4 °C 787.2 hPa Calm   -1607.7 km/h 89% 0 mm
04:43 -3 °C -4.3 °C 787.2 hPa Calm   -1607.7 km/h 91% 0 mm
04:58 -3.2 °C -4.5 °C 787.6 hPa North 6 km/h -1607.7 km/h 91% 0 mm
05:13 -3.4 °C -4.8 °C 787.9 hPa Calm   -1607.7 km/h 90% 0 mm
05:28 -3.6 °C -5.3 °C 787.9 hPa Calm   -1607.7 km/h 88% 0 mm
05:44 -3.7 °C -5.1 °C 788.3 hPa Calm   -1607.7 km/h 90% 0 mm
05:59 -4 °C -5.4 °C 788.3 hPa Calm   -1607.7 km/h 90% 0 mm
06:14 -4.2 °C -5.4 °C 788.6 hPa Calm   -1607.7 km/h 91% 0 mm
06:29 -4.6 °C -5.8 °C 788.9 hPa Calm   -1607.7 km/h 91% 0 mm
06:45 -4.8 °C -6.4 °C 788.9 hPa WNW 3.5 km/h -1607.7 km/h 88% 0 mm
07:00 -4.6 °C -6.9 °C 788.9 hPa NW 3.5 km/h -1607.7 km/h 84% 0 mm
07:15 -4.3 °C -7.2 °C 789.3 hPa WNW 5.1 km/h -1607.7 km/h 80% 0 mm
07:30 -4.4 °C -7.7 °C 789.3 hPa ENE 7.6 km/h -1607.7 km/h 78% 0 mm
07:45 -4.2 °C -7.5 °C 789.6 hPa Calm   -1607.7 km/h 78% 0 mm
08:01 -4.1 °C -7.6 °C 789.6 hPa Calm   -1607.7 km/h 77% 0 mm
08:16 -3.4 °C -6.8 °C 790.3 hPa North 4.3 km/h -1607.7 km/h 77% 0 mm
08:31 -3.2 °C -6.5 °C 790.3 hPa NE 4.3 km/h -1607.7 km/h 78% 0 mm
08:46 -3.2 °C -6.7 °C 790.6 hPa NNW 6.8 km/h -1607.7 km/h 77% 0 mm
09:01 -3 °C -7 °C 790.6 hPa NW 8.5 km/h -1607.7 km/h 74% 0 mm
09:17 -2.8 °C -6.8 °C 790.6 hPa North 6.8 km/h -1607.7 km/h 74% 0 mm
09:32 -2.5 °C -6.8 °C 791 hPa North 4.3 km/h -1607.7 km/h 72% 0 mm
09:47 -2.2 °C -6.4 °C 791 hPa NNW 9.3 km/h -1607.7 km/h 73% 0 mm
10:02 -2.1 °C -7.2 °C 791 hPa NNW 10.1 km/h -1607.7 km/h 68% 0 mm
10:18 -1.9 °C -6.8 °C 791.3 hPa North 6.8 km/h -1607.7 km/h 69% 0 mm
10:34 -1.4 °C -6.9 °C 791 hPa NNE 6.8 km/h -1607.7 km/h 66% 0 mm
10:49 -0.6 °C -6.8 °C 791.3 hPa NW 7.6 km/h -1607.7 km/h 63% 0 mm
11:04 0.2 °C -7.3 °C 791.3 hPa North 12.6 km/h -1607.7 km/h 57% 0 mm
11:20 0.8 °C -6.6 °C 791.3 hPa North 6.8 km/h -1607.7 km/h 58% 0 mm
11:35 1.1 °C -6.4 °C 791.6 hPa NE 10.1 km/h -1607.7 km/h 57% 0 mm
11:50 1.1 °C -5.8 °C 791.6 hPa North 7.6 km/h -1607.7 km/h 60% 0 mm
12:05 1.4 °C -5.6 °C 791.6 hPa NNW 9.3 km/h -1607.7 km/h 60% 0 mm
12:21 1.7 °C -5.4 °C 791.6 hPa NNE 8.5 km/h -1607.7 km/h 59% 0 mm
12:36 2 °C -6.3 °C 791.6 hPa North 10.9 km/h -1607.7 km/h 54% 0 mm
12:52 2 °C -6.1 °C 792 hPa NNW 9.3 km/h -1607.7 km/h 55% 0 mm
13:07 2.3 °C -5.6 °C 792 hPa NW 10.9 km/h -1607.7 km/h 56% 0 mm
13:23 2.6 °C -5.6 °C 792 hPa North 9.3 km/h -1607.7 km/h 55% 0 mm
13:39 2.2 °C -6.1 °C 792 hPa North 11.7 km/h -1607.7 km/h 54% 0 mm
13:54 1.9 °C -6.7 °C 791.6 hPa North 12.6 km/h -1607.7 km/h 53% 0 mm
14:10 2 °C -6.6 °C 792 hPa NNE 7.6 km/h -1607.7 km/h 53% 0 mm
14:25 1.7 °C -6.4 °C 791.6 hPa North 8.5 km/h -1607.7 km/h 55% 0 mm
14:40 2 °C -6.3 °C 791.6 hPa NNW 7.6 km/h -1607.7 km/h 54% 0 mm
14:56 2.1 °C -6.2 °C 791.6 hPa WNW 8.5 km/h -1607.7 km/h 54% 0 mm
15:11 2 °C -5.4 °C 791.6 hPa NNW 7.6 km/h -1607.7 km/h 58% 0 mm
15:26 1.9 °C -5.7 °C 792 hPa NNW 8.5 km/h -1607.7 km/h 57% 0 mm
15:41 1.9 °C -6.7 °C 792 hPa NNW 9.3 km/h -1607.7 km/h 53% 0 mm
15:56 2.1 °C -7.8 °C 792 hPa NNW 10.1 km/h -1607.7 km/h 48% 0 mm
16:12 2 °C -6.6 °C 792 hPa North 8.5 km/h -1607.7 km/h 53% 0 mm
16:27 2.1 °C -7.2 °C 792.3 hPa NNE 4.3 km/h -1607.7 km/h 50% 0 mm
16:42 1.9 °C -6.4 °C 792.3 hPa WNW 6.8 km/h -1607.7 km/h 54% 0 mm
16:58 1.6 °C -6.7 °C 792.3 hPa NNW 6.8 km/h -1607.7 km/h 54% 0 mm
17:13 1.5 °C -6.8 °C 792.7 hPa NW 4.3 km/h -1607.7 km/h 54% 0 mm
17:28 3 °C -6.2 °C 792.7 hPa NNW 5.1 km/h -1607.7 km/h 51% 0 mm
17:43 1.8 °C -6.6 °C 792.7 hPa NNW 3.5 km/h -1607.7 km/h 54% 0 mm
17:58 1.1 °C -6.9 °C 792.7 hPa NNW 4.3 km/h -1607.7 km/h 55% 0 mm
18:14 0.6 °C -7.7 °C 792.7 hPa WNW 4.3 km/h -1607.7 km/h 54% 0 mm
18:29 0.2 °C -8 °C 793 hPa NNE 2.7 km/h -1607.7 km/h 54% 0 mm
18:44 -0.4 °C -7.7 °C 793 hPa Calm   -1607.7 km/h 58% 0 mm
18:59 -1.3 °C -8.1 °C 793 hPa Calm   -1607.7 km/h 60% 0 mm
19:14 -1.8 °C -8.3 °C 793 hPa Calm   -1607.7 km/h 61% 0 mm
19:30 -2.3 °C -7.8 °C 793.7 hPa Calm   -1607.7 km/h 66% 0 mm
19:45 -2.8 °C -7.9 °C 793.7 hPa Calm   -1607.7 km/h 68% 0 mm
20:00 -3.1 °C -7.8 °C 794 hPa Calm   -1607.7 km/h 70% 0 mm
20:15 -3.2 °C -6.8 °C 794 hPa Calm   -1607.7 km/h 76% 0 mm
20:30 -3.5 °C -7.3 °C 794 hPa Calm   -1607.7 km/h 75% 0 mm
20:46 -3.4 °C -6.2 °C 794.4 hPa Calm   -1607.7 km/h 81% 0 mm
21:01 -3.8 °C -6.9 °C 794.4 hPa Calm   -1607.7 km/h 79% 0 mm
21:16 -3.9 °C -6.8 °C 794.7 hPa Calm   -1607.7 km/h 80% 0 mm
21:31 -3.8 °C -7.2 °C 794.7 hPa Calm   -1607.7 km/h 77% 0 mm
21:47 -3.9 °C -7.5 °C 795 hPa Calm   -1607.7 km/h 76% 0 mm
22:02 -4 °C -7.3 °C 795 hPa Calm   -1607.7 km/h 78% 0 mm
22:17 -4.4 °C -8.3 °C 795 hPa Calm   -1607.7 km/h 74% 0 mm
22:32 -4.1 °C -8.4 °C 795 hPa Calm   -1607.7 km/h 72% 0 mm
22:47 -3.6 °C -7.9 °C 795.4 hPa WNW 5.1 km/h -1607.7 km/h 72% 0 mm
23:03 -3.6 °C -9.2 °C 795.4 hPa South 1.8 km/h -1607.7 km/h 65% 0 mm
23:18 -3.8 °C -10 °C 795.7 hPa East 2.7 km/h -1607.7 km/h 62% 0 mm
23:33 -3.9 °C -10.5 °C 795.7 hPa Calm   -1607.7 km/h 60% 0 mm
23:48 -3.7 °C -10.4 °C 795.7 hPa Calm   -1607.7 km/h 60% 0 mm
Big Bear CA Weather